首页
METAR-TAF:

METAR-TAF

机场 :

土伦, 法国

纬度: 43-06N, 经度: 006-09E, 海拔: 3米

当前天气观测

该预报发布于28分钟前的08:30 UTC
风速4节,风向,在南转南东西南之间变化
温度 33°C
湿度 44%
气压 1020 hPa
能见度10公里或以上
1500米以下无云,无积雨云

METAR: LFTH 270830Z AUTO 19004KT 150V220 CAVOK 33/19 Q1020 NOSIG

时间: 10:58 (08:58 UTC)

预报

该预报发布于58分钟前的08:00 UTC
预报有效从27日的 09点(UTC)到 28日的 09点(UTC)
风速3节,风向
能见度10公里或以上
1500米以下无云,无积雨云
成为
从 27日的 12点(UTC)到 27日的 15点(UTC)
风速10节,风向西转西南,有时为20节阵风
成为
从 27日的 18点(UTC)到 27日的 22点(UTC)
风速5节,风向西转西南

TAF: LFTH 270800Z 2709/2809 18003KT CAVOK BECMG 2712/2715 24010G20KT BECMG 2718/2722 24005KT

超过4000个机场的气象观测和天气预报(METAR&TAF报告)。

可查询的气象台以黄色和红色小点在地图上表示。

将鼠标移到小点上方,可查看气象台名称。

然后点击查看天气观测和预报。

如需切换地图:点击带黑十字的绿色按钮放大地图;点击带横线的绿色按钮缩小地图;或者点击绿色箭头查看邻近地区的地图。


METAR-TAF: